createdAt,value
2022-10-15T00:00:33.908Z,100160.59
2022-10-15T00:03:25.606Z,100156.55
2022-10-15T00:05:57.666Z,100151.65
2022-10-15T00:08:29.192Z,100148.57
2022-10-15T00:11:08.011Z,100151.39
2022-10-15T00:13:40.457Z,100149.41
2022-10-15T00:16:15.480Z,100148.73
2022-10-15T00:18:48.128Z,100145.77
2022-10-15T00:21:21.344Z,100144.13
2022-10-15T00:23:53.700Z,100144.65
2022-10-15T00:26:28.216Z,100143.08
2022-10-15T00:29:02.032Z,100142.68
2022-10-15T00:31:34.697Z,100134.88
2022-10-15T00:34:06.321Z,100142.17
2022-10-15T00:36:39.061Z,100135.73
2022-10-15T00:39:11.662Z,100129.85
2022-10-15T00:41:45.244Z,100124.86
2022-10-15T00:44:55.348Z,100124.98
2022-10-15T00:47:41.928Z,100127.92
2022-10-15T00:50:16.756Z,100124.77
2022-10-15T00:53:01.554Z,100119.44
2022-10-15T00:55:36.201Z,100117.30
2022-10-15T01:00:45.204Z,100112.55
2022-10-15T01:03:17.287Z,100111.25
2022-10-15T01:05:51.753Z,100111.80
2022-10-15T01:08:23.483Z,100112.10
2022-10-15T01:11:15.570Z,100110.58
2022-10-15T01:13:56.524Z,100109.84
2022-10-15T01:16:36.379Z,100106.54
2022-10-15T01:19:18.035Z,100103.76
2022-10-15T01:21:57.052Z,100100.23
2022-10-15T01:24:46.925Z,100096.02
2022-10-15T01:27:28.749Z,100090.69
2022-10-15T01:30:31.864Z,100084.61
2022-10-15T01:33:36.054Z,100080.89
2022-10-15T01:36:17.345Z,100077.52
2022-10-15T01:38:59.682Z,100078.30
2022-10-15T01:41:40.415Z,100068.20
2022-10-15T01:44:17.617Z,100065.93
2022-10-15T01:47:01.382Z,100061.98
2022-10-15T01:49:38.299Z,100056.30
2022-10-15T01:52:14.909Z,100055.16
2022-10-15T01:54:49.180Z,100049.20
2022-10-15T01:57:26.430Z,100046.86
2022-10-15T01:59:59.950Z,100046.88
2022-10-15T02:02:33.094Z,100046.20
2022-10-15T02:05:07.515Z,100047.39
2022-10-15T02:07:48.345Z,100050.02
2022-10-15T02:10:27.671Z,100047.98
2022-10-15T02:13:06.708Z,100042.93
2022-10-15T02:15:47.168Z,100035.41
2022-10-15T02:18:25.533Z,100033.16
2022-10-15T02:21:01.000Z,100027.55
2022-10-15T02:23:39.494Z,100023.30
2022-10-15T02:26:14.452Z,100025.84
2022-10-15T02:28:51.115Z,100018.52
2022-10-15T02:31:24.015Z,100012.08
2022-10-15T02:33:56.537Z,100009.77
2022-10-15T02:36:28.614Z,100007.95
2022-10-15T02:39:02.874Z,100007.46
2022-10-15T02:41:36.544Z,100008.56
2022-10-15T02:44:08.372Z,100003.83
2022-10-15T02:46:39.932Z,100006.73
2022-10-15T02:49:11.529Z,100006.11
2022-10-15T02:51:43.155Z,100008.39
2022-10-15T02:54:15.030Z,100009.11
2022-10-15T02:56:47.011Z,100001.40
2022-10-15T02:59:19.831Z,99996.78
2022-10-15T03:01:51.445Z,99995.32
2022-10-15T03:04:23.137Z,99993.27
2022-10-15T03:06:55.574Z,99989.19
2022-10-15T03:09:28.207Z,99986.27
2022-10-15T03:11:59.757Z,99982.71
2022-10-15T03:14:31.616Z,99982.23
2022-10-15T03:17:04.092Z,99982.36
2022-10-15T03:19:35.991Z,99984.00
2022-10-15T03:22:07.707Z,99981.96
2022-10-15T03:24:47.170Z,99982.73
2022-10-15T03:27:20.357Z,99980.72
2022-10-15T03:29:52.314Z,99972.33
2022-10-15T03:32:25.351Z,99969.20
2022-10-15T03:34:57.238Z,99972.58
2022-10-15T03:37:30.033Z,99971.05
2022-10-15T03:40:02.363Z,99967.45
2022-10-15T03:42:34.175Z,99964.62
2022-10-15T03:45:08.058Z,99962.59
2022-10-15T03:47:40.188Z,99953.91
2022-10-15T03:50:12.506Z,99951.91
2022-10-15T03:52:45.076Z,99949.89
2022-10-15T03:55:17.943Z,99945.02
2022-10-15T03:57:51.048Z,99947.06
2022-10-15T04:00:23.289Z,99954.02
2022-10-15T04:02:56.322Z,99950.98
2022-10-15T04:05:31.360Z,99953.72
2022-10-15T04:08:09.246Z,99961.70
2022-10-15T04:10:44.550Z,99960.92
2022-10-15T04:13:16.482Z,99956.02
2022-10-15T04:15:48.582Z,99955.94
2022-10-15T04:18:21.895Z,99950.77
2022-10-15T04:20:55.590Z,99951.77
2022-10-15T04:23:27.695Z,99948.27
2022-10-15T04:26:19.904Z,99951.85
2022-10-15T04:28:52.040Z,99954.60
2022-10-15T04:31:24.863Z,99955.29
2022-10-15T04:33:55.696Z,99950.61
2022-10-15T04:36:27.507Z,99950.71
2022-10-15T04:39:04.511Z,99949.89
2022-10-15T04:41:46.919Z,99946.18
2022-10-15T04:44:22.477Z,99942.88
2022-10-15T04:46:58.866Z,99946.06
2022-10-15T04:49:38.685Z,99939.97
2022-10-15T04:52:15.496Z,99937.13
2022-10-15T04:55:09.405Z,99938.23
2022-10-15T04:57:42.130Z,99940.54
2022-10-15T05:00:15.859Z,99949.09
2022-10-15T05:02:47.501Z,99954.44
2022-10-15T05:05:24.596Z,99947.91
2022-10-15T05:08:03.848Z,99942.48
2022-10-15T05:10:38.819Z,99939.90
2022-10-15T05:13:11.273Z,99934.19
2022-10-15T05:15:43.571Z,99928.08
2022-10-15T05:18:15.577Z,99920.67
2022-10-15T05:20:52.789Z,99921.13
2022-10-15T05:23:24.668Z,99923.31
2022-10-15T05:26:05.320Z,99926.06
2022-10-15T05:28:37.835Z,99929.21
2022-10-15T05:31:17.592Z,99924.28
2022-10-15T05:33:51.373Z,99928.16
2022-10-15T05:36:29.809Z,99934.55
2022-10-15T05:39:03.605Z,99938.16
2022-10-15T05:41:36.221Z,99936.66
2022-10-15T05:44:07.882Z,99942.48
2022-10-15T05:46:39.592Z,99936.13
2022-10-15T05:49:11.764Z,99938.95
2022-10-15T05:51:52.759Z,99937.54
2022-10-15T05:54:34.790Z,99936.73
2022-10-15T05:57:06.317Z,99941.21
2022-10-15T05:59:38.078Z,99938.16
2022-10-15T06:02:16.077Z,99938.08
2022-10-15T06:04:49.582Z,99933.30
2022-10-15T06:07:21.434Z,99934.89
2022-10-15T06:09:53.521Z,99937.16
2022-10-15T06:12:29.459Z,99940.38
2022-10-15T06:15:01.013Z,99941.68
2022-10-15T06:17:32.618Z,99935.23
2022-10-15T06:20:04.951Z,99932.62
2022-10-15T06:25:14.037Z,99927.39
2022-10-15T06:27:45.893Z,99927.48
2022-10-15T06:30:17.490Z,99921.05
2022-10-15T06:32:52.106Z,99931.14
2022-10-15T06:35:25.331Z,99941.09
2022-10-15T06:38:00.682Z,99937.56
2022-10-15T06:40:35.158Z,99949.41
2022-10-15T06:43:09.030Z,99957.66
2022-10-15T06:45:42.988Z,99958.71
2022-10-15T06:48:21.639Z,99959.02
2022-10-15T06:50:53.392Z,99964.17
2022-10-15T06:53:25.091Z,99962.31
2022-10-15T06:56:01.189Z,99964.97
2022-10-15T06:58:36.353Z,99968.51
2022-10-15T07:01:10.119Z,99968.80
2022-10-15T07:03:41.798Z,99966.02
2022-10-15T07:06:13.796Z,99967.02
2022-10-15T07:08:45.996Z,99967.58
2022-10-15T07:11:18.264Z,99967.38
2022-10-15T07:13:50.137Z,99966.56
2022-10-15T07:16:21.637Z,99967.55
2022-10-15T07:18:53.186Z,99968.36
2022-10-15T07:21:25.303Z,99967.96
2022-10-15T07:23:57.237Z,99969.03
2022-10-15T07:26:30.255Z,99971.48
2022-10-15T07:29:03.449Z,99968.70
2022-10-15T07:31:36.225Z,99968.43
2022-10-15T07:34:09.418Z,99968.10
2022-10-15T07:36:42.422Z,99965.14
2022-10-15T07:39:14.338Z,99960.13
2022-10-15T07:41:46.796Z,99959.06
2022-10-15T07:44:18.564Z,99965.81
2022-10-15T07:46:50.978Z,99962.73
2022-10-15T07:49:22.587Z,99967.16
2022-10-15T07:51:54.322Z,99961.45
2022-10-15T07:54:26.495Z,99964.81
2022-10-15T07:56:58.068Z,99964.54
2022-10-15T07:59:29.740Z,99963.99
2022-10-15T08:02:01.492Z,99961.70
2022-10-15T08:04:34.995Z,99960.75
2022-10-15T08:07:08.046Z,99956.95
2022-10-15T08:09:42.147Z,99958.14
2022-10-15T08:12:14.245Z,99963.05
2022-10-15T08:14:45.839Z,99960.97
2022-10-15T08:17:17.484Z,99958.13
2022-10-15T08:19:49.173Z,99959.38
2022-10-15T08:22:21.099Z,99959.03
2022-10-15T08:24:53.121Z,99963.80
2022-10-15T08:27:24.931Z,99964.14
2022-10-15T08:30:02.197Z,99964.84
2022-10-15T08:32:33.913Z,99967.84
2022-10-15T08:35:05.643Z,99973.06
2022-10-15T08:37:37.301Z,99971.57
2022-10-15T08:40:11.447Z,99974.30
2022-10-15T08:42:46.276Z,99979.23
2022-10-15T08:45:21.244Z,99980.30
2022-10-15T08:48:01.183Z,99982.36
2022-10-15T08:50:41.320Z,99977.14
2022-10-15T08:53:19.724Z,99981.63
2022-10-15T08:55:54.940Z,99981.35
2022-10-15T08:58:41.373Z,99985.34
2022-10-15T09:01:19.405Z,99986.48
2022-10-15T09:04:02.275Z,99986.59
2022-10-15T09:06:38.064Z,99986.52
2022-10-15T09:09:18.522Z,99983.71
2022-10-15T09:12:00.325Z,99984.46
2022-10-15T09:14:39.156Z,99981.36
2022-10-15T09:17:20.562Z,99983.20
2022-10-15T09:19:56.311Z,99986.70
2022-10-15T09:22:30.824Z,99985.67
2022-10-15T09:25:07.058Z,99993.32
2022-10-15T09:27:40.512Z,99990.52
2022-10-15T09:30:26.565Z,99992.23
2022-10-15T09:33:04.710Z,99991.48
2022-10-15T09:35:45.006Z,99999.02
2022-10-15T09:38:33.451Z,99996.90
2022-10-15T09:41:18.672Z,99993.25
2022-10-15T09:43:53.687Z,99996.09
2022-10-15T09:46:27.431Z,99993.20
2022-10-15T09:49:09.635Z,100000.42
2022-10-15T09:51:47.451Z,99996.39
2022-10-15T09:54:26.421Z,99993.31
2022-10-15T09:56:59.119Z,99996.90
2022-10-15T10:02:20.713Z,100008.13
2022-10-15T10:04:53.483Z,100007.80
2022-10-15T10:07:33.607Z,100007.32
2022-10-15T10:10:21.837Z,100005.86
2022-10-15T10:12:55.464Z,100007.59
2022-10-15T10:15:37.196Z,100008.42
2022-10-15T10:18:18.801Z,100010.06
2022-10-15T10:21:00.116Z,100008.28
2022-10-15T10:23:36.898Z,100004.86
2022-10-15T10:26:11.285Z,100006.16
2022-10-15T10:28:48.917Z,100003.23
2022-10-15T10:31:28.554Z,100007.02
2022-10-15T10:34:03.828Z,100007.77
2022-10-15T10:36:39.500Z,100004.73
2022-10-15T10:39:26.145Z,100002.51
2022-10-15T10:42:00.493Z,99997.46
2022-10-15T10:44:35.201Z,99998.95
2022-10-15T10:47:14.584Z,99995.42
2022-10-15T10:49:48.803Z,99995.43
2022-10-15T10:52:38.025Z,99998.52
2022-10-15T10:55:20.085Z,100002.09
2022-10-15T10:57:54.447Z,100001.64
2022-10-15T11:00:32.560Z,100002.30
2022-10-15T11:03:04.541Z,100001.73
2022-10-15T11:05:41.531Z,100006.71
2022-10-15T11:08:27.275Z,100007.23
2022-10-15T11:11:06.252Z,100008.50
2022-10-15T11:13:48.632Z,100006.19
2022-10-15T11:16:29.198Z,100004.67
2022-10-15T11:19:19.833Z,100003.46
2022-10-15T11:22:26.577Z,100002.77
2022-10-15T11:25:07.693Z,99998.16
2022-10-15T11:27:52.496Z,99992.98
2022-10-15T11:30:43.939Z,99988.44
2022-10-15T11:33:34.973Z,99990.38
2022-10-15T11:36:21.952Z,99987.41
2022-10-15T11:39:01.217Z,99988.58
2022-10-15T11:41:46.011Z,99982.05
2022-10-15T11:44:33.110Z,99984.41
2022-10-15T11:47:22.484Z,99982.39
2022-10-15T11:50:10.209Z,99986.80
2022-10-15T11:52:57.122Z,99984.48
2022-10-15T11:55:36.656Z,99990.98
2022-10-15T11:58:16.829Z,99989.85
2022-10-15T12:00:56.674Z,99995.39
2022-10-15T12:03:35.114Z,99996.91
2022-10-15T12:06:10.776Z,99999.34
2022-10-15T12:08:44.776Z,100002.77
2022-10-15T12:11:28.873Z,99995.64
2022-10-15T12:14:07.525Z,99998.70
2022-10-15T12:16:45.799Z,99993.85
2022-10-15T12:19:21.185Z,99996.42
2022-10-15T12:22:11.328Z,99998.08
2022-10-15T12:24:56.403Z,100000.27
2022-10-15T12:27:34.607Z,100003.20
2022-10-15T12:30:27.833Z,99995.44
2022-10-15T12:32:58.288Z,99995.66
2022-10-15T12:35:43.788Z,99996.23
2022-10-15T12:38:24.688Z,99995.23
2022-10-15T12:41:05.723Z,99989.09
2022-10-15T12:43:41.126Z,99988.70
2022-10-15T12:46:16.457Z,99984.94
2022-10-15T12:48:54.010Z,99983.36
2022-10-15T12:51:35.281Z,99983.74
2022-10-15T12:54:41.664Z,99975.48
2022-10-15T12:57:56.121Z,99973.85
2022-10-15T13:00:42.871Z,99973.02
2022-10-15T13:03:41.112Z,99972.43
2022-10-15T13:06:32.809Z,99975.73
2022-10-15T13:09:25.738Z,99975.70
2022-10-15T13:12:00.024Z,99979.22
2022-10-15T13:14:36.890Z,99976.46
2022-10-15T13:17:17.681Z,99977.27
2022-10-15T13:20:04.772Z,99976.36
2022-10-15T13:22:38.258Z,99983.98
2022-10-15T13:25:20.212Z,99981.86
2022-10-15T13:27:52.179Z,99977.16
2022-10-15T13:30:24.792Z,99975.23
2022-10-15T13:32:56.525Z,99971.55
2022-10-15T13:35:32.490Z,99963.58
2022-10-15T13:38:06.154Z,99969.05
2022-10-15T13:40:38.562Z,99973.16
2022-10-15T13:43:17.181Z,99970.77
2022-10-15T13:45:55.177Z,99970.54
2022-10-15T13:48:29.409Z,99976.14
2022-10-15T13:51:04.197Z,99978.92
2022-10-15T13:53:38.894Z,99979.05
2022-10-15T13:56:24.527Z,99983.59
2022-10-15T13:58:58.260Z,99985.81
2022-10-15T14:01:33.372Z,99986.78
2022-10-15T14:04:16.011Z,99985.23
2022-10-15T14:09:33.741Z,99988.55
2022-10-15T14:12:09.424Z,99991.66
2022-10-15T14:14:45.216Z,99992.30
2022-10-15T14:17:26.363Z,99991.45
2022-10-15T14:20:25.633Z,99986.54
2022-10-15T14:22:54.058Z,99988.48
2022-10-15T14:25:27.774Z,99985.58
2022-10-15T14:27:59.672Z,99987.61
2022-10-15T14:30:36.007Z,99984.52
2022-10-15T14:33:21.595Z,99985.15
2022-10-15T14:36:07.347Z,99984.67
2022-10-15T14:38:42.112Z,99986.59
2022-10-15T14:41:31.027Z,99986.03
2022-10-15T14:44:18.083Z,99982.90
2022-10-15T14:46:54.236Z,99987.82
2022-10-15T14:49:29.412Z,99992.11
2022-10-15T14:52:05.833Z,99995.66
2022-10-15T14:54:43.616Z,99992.17
2022-10-15T14:57:22.453Z,99992.09
2022-10-15T14:59:57.311Z,99993.45
2022-10-15T15:02:31.857Z,99993.23
2022-10-15T15:05:22.776Z,99990.70
2022-10-15T15:07:56.970Z,99990.30
2022-10-15T15:10:29.614Z,99992.30
2022-10-15T15:13:01.457Z,99992.20
2022-10-15T15:15:33.490Z,99992.34
2022-10-15T15:18:05.178Z,99999.09
2022-10-15T15:20:37.427Z,99996.89
2022-10-15T15:23:13.851Z,100004.39
2022-10-15T15:25:45.656Z,100003.70
2022-10-15T15:28:21.913Z,100004.61
2022-10-15T15:31:00.772Z,100003.41
2022-10-15T15:33:33.038Z,100000.42
2022-10-15T15:36:08.862Z,100001.39
2022-10-15T15:38:40.854Z,99995.59
2022-10-15T15:41:17.375Z,99993.23
2022-10-15T15:43:49.419Z,99998.45
2022-10-15T15:46:21.854Z,99999.52
2022-10-15T15:48:53.638Z,100004.51
2022-10-15T15:51:28.928Z,100006.11
2022-10-15T15:54:04.589Z,100009.09
2022-10-15T15:56:36.554Z,100016.58
2022-10-15T15:59:08.350Z,100020.77
2022-10-15T16:01:40.121Z,100019.09
2022-10-15T16:04:11.820Z,100024.32
2022-10-15T16:06:48.962Z,100033.08
2022-10-15T16:09:22.938Z,100035.16
2022-10-15T16:11:54.527Z,100041.99
2022-10-15T16:14:26.165Z,100041.93
2022-10-15T16:16:58.144Z,100045.84
2022-10-15T16:19:29.708Z,100050.29
2022-10-15T16:22:03.941Z,100049.55
2022-10-15T16:24:35.789Z,100049.17
2022-10-15T16:27:07.388Z,100053.57
2022-10-15T16:29:39.134Z,100057.20
2022-10-15T16:32:10.870Z,100056.69
2022-10-15T16:34:42.946Z,100060.96
2022-10-15T16:37:14.640Z,100063.16
2022-10-15T16:39:46.322Z,100071.29
2022-10-15T16:44:54.368Z,100071.61
2022-10-15T16:47:26.187Z,100070.02
2022-10-15T16:49:58.026Z,100071.81
2022-10-15T16:52:29.705Z,100077.46
2022-10-15T16:55:01.272Z,100077.13
2022-10-15T16:57:33.182Z,100077.48
2022-10-15T17:00:05.530Z,100071.92
2022-10-15T17:02:37.853Z,100074.59
2022-10-15T17:05:11.330Z,100080.87
2022-10-15T17:07:43.939Z,100081.21
2022-10-15T17:10:15.675Z,100080.31
2022-10-15T17:12:47.258Z,100084.65
2022-10-15T17:15:18.871Z,100087.71
2022-10-15T17:17:51.222Z,100091.38
2022-10-15T17:20:23.082Z,100094.39
2022-10-15T17:22:54.823Z,100095.00
2022-10-15T17:25:26.539Z,100096.98
2022-10-15T17:27:58.497Z,100101.25
2022-10-15T17:30:30.420Z,100103.77
2022-10-15T17:33:02.522Z,100110.48
2022-10-15T17:35:39.096Z,100105.76
2022-10-15T17:38:11.812Z,100113.24
2022-10-15T17:40:42.045Z,100112.60
2022-10-15T17:43:13.741Z,100116.77
2022-10-15T17:45:45.528Z,100108.98
2022-10-15T17:48:17.315Z,100113.52
2022-10-15T17:50:49.197Z,100113.61
2022-10-15T17:53:20.863Z,100122.48
2022-10-15T17:55:52.554Z,100128.40
2022-10-15T17:58:24.657Z,100128.36
2022-10-15T18:00:58.234Z,100129.80
2022-10-15T18:03:31.352Z,100133.00
2022-10-15T18:06:09.332Z,100135.84
2022-10-15T18:08:41.766Z,100138.93
2022-10-15T18:11:15.775Z,100141.64
2022-10-15T18:13:47.583Z,100139.96
2022-10-15T18:16:19.786Z,100144.23
2022-10-15T18:18:52.538Z,100144.47
2022-10-15T18:21:26.284Z,100147.53
2022-10-15T18:24:01.875Z,100152.16
2022-10-15T18:26:33.743Z,100154.73
2022-10-15T18:29:06.055Z,100154.29
2022-10-15T18:31:37.733Z,100154.73
2022-10-15T18:34:09.327Z,100152.73
2022-10-15T18:36:42.504Z,100153.80
2022-10-15T18:39:14.576Z,100157.98
2022-10-15T18:41:46.379Z,100153.85
2022-10-15T18:44:21.507Z,100157.88
2022-10-15T18:46:53.762Z,100163.55
2022-10-15T18:49:25.421Z,100164.05
2022-10-15T18:51:57.431Z,100166.17
2022-10-15T18:54:36.251Z,100170.27
2022-10-15T18:57:07.943Z,100168.54
2022-10-15T18:59:40.137Z,100168.88
2022-10-15T19:02:12.530Z,100166.98
2022-10-15T19:04:44.747Z,100169.89
2022-10-15T19:07:17.871Z,100168.41
2022-10-15T19:09:50.519Z,100174.86
2022-10-15T19:12:24.851Z,100176.39
2022-10-15T19:14:57.700Z,100177.04
2022-10-15T19:17:30.083Z,100179.21
2022-10-15T19:20:01.864Z,100175.17
2022-10-15T19:22:33.628Z,100178.15
2022-10-15T19:25:06.374Z,100177.30
2022-10-15T19:27:38.085Z,100176.59
2022-10-15T19:30:11.374Z,100181.14
2022-10-15T19:32:44.162Z,100182.11
2022-10-15T19:35:16.268Z,100188.08
2022-10-15T19:37:49.022Z,100189.31
2022-10-15T19:40:21.345Z,100192.67
2022-10-15T19:42:53.342Z,100197.17
2022-10-15T19:45:24.538Z,100198.79
2022-10-15T19:47:59.940Z,100198.66
2022-10-15T19:50:36.574Z,100199.23
2022-10-15T19:53:16.337Z,100200.89
2022-10-15T19:55:58.228Z,100204.90
2022-10-15T19:58:30.881Z,100200.39
2022-10-15T20:01:01.380Z,100200.88
2022-10-15T20:06:11.251Z,100202.61
2022-10-15T20:08:43.321Z,100195.23
2022-10-15T20:11:15.139Z,100197.20
2022-10-15T20:13:48.092Z,100201.92
2022-10-15T20:16:23.030Z,100203.21
2022-10-15T20:18:56.585Z,100201.48
2022-10-15T20:21:28.745Z,100207.37
2022-10-15T20:24:03.945Z,100210.97
2022-10-15T20:26:35.998Z,100211.48
2022-10-15T20:29:07.579Z,100216.70
2022-10-15T20:31:39.710Z,100216.36
2022-10-15T20:34:11.326Z,100212.40
2022-10-15T20:36:43.035Z,100216.99
2022-10-15T20:39:14.690Z,100219.41
2022-10-15T20:41:46.677Z,100214.96
2022-10-15T20:44:18.726Z,100219.44
2022-10-15T20:46:55.413Z,100220.92
2022-10-15T20:49:30.879Z,100227.66
2022-10-15T20:52:02.969Z,100230.71
2022-10-15T20:54:35.319Z,100236.35
2022-10-15T20:57:07.126Z,100228.73
2022-10-15T20:59:39.124Z,100234.52
2022-10-15T21:02:11.056Z,100233.52
2022-10-15T21:04:42.693Z,100238.94
2022-10-15T21:07:14.470Z,100240.69
2022-10-15T21:09:46.447Z,100242.68
2022-10-15T21:12:18.659Z,100238.39
2022-10-15T21:14:50.559Z,100237.67
2022-10-15T21:17:23.358Z,100236.14
2022-10-15T21:19:55.740Z,100228.95
2022-10-15T21:22:27.601Z,100231.55
2022-10-15T21:24:59.500Z,100233.17
2022-10-15T21:27:31.650Z,100235.91
2022-10-15T21:30:03.291Z,100238.00
2022-10-15T21:32:35.043Z,100239.25
2022-10-15T21:35:07.890Z,100239.75
2022-10-15T21:37:38.663Z,100244.63
2022-10-15T21:40:12.889Z,100253.91
2022-10-15T21:42:44.497Z,100259.67
2022-10-15T21:45:16.608Z,100262.65
2022-10-15T21:47:48.396Z,100275.94
2022-10-15T21:50:20.303Z,100279.64
2022-10-15T21:52:51.874Z,100287.91
2022-10-15T21:55:28.348Z,100288.54
2022-10-15T21:58:02.108Z,100292.64
2022-10-15T22:00:33.868Z,100289.63
2022-10-15T22:03:06.243Z,100291.16
2022-10-15T22:05:38.124Z,100297.41
2022-10-15T22:08:10.903Z,100293.55
2022-10-15T22:10:41.797Z,100291.35
2022-10-15T22:13:13.433Z,100291.77
2022-10-15T22:15:45.037Z,100291.29
2022-10-15T22:18:16.848Z,100287.93
2022-10-15T22:20:49.075Z,100292.39
2022-10-15T22:23:25.393Z,100294.11
2022-10-15T22:26:02.846Z,100299.27
2022-10-15T22:28:34.508Z,100300.11
2022-10-15T22:31:08.386Z,100299.19
2022-10-15T22:33:40.648Z,100297.34
2022-10-15T22:36:16.915Z,100301.65
2022-10-15T22:38:52.984Z,100302.19
2022-10-15T22:41:25.358Z,100301.85
2022-10-15T22:43:56.996Z,100305.05
2022-10-15T22:46:29.080Z,100306.95
2022-10-15T22:49:00.625Z,100305.02
2022-10-15T22:51:32.460Z,100304.80
2022-10-15T22:54:04.413Z,100305.67
2022-10-15T22:56:37.947Z,100304.98
2022-10-15T23:01:42.724Z,100301.45
2022-10-15T23:04:16.401Z,100306.22
2022-10-15T23:06:48.009Z,100305.53
2022-10-15T23:09:19.993Z,100304.90
2022-10-15T23:11:52.225Z,100307.35
2022-10-15T23:14:23.902Z,100309.87
2022-10-15T23:16:55.515Z,100306.78
2022-10-15T23:19:27.201Z,100306.64
2022-10-15T23:22:00.044Z,100305.56
2022-10-15T23:24:31.751Z,100302.18
2022-10-15T23:27:03.720Z,100299.52
2022-10-15T23:29:35.725Z,100302.92
2022-10-15T23:32:07.746Z,100302.38
2022-10-15T23:34:39.388Z,100304.80
2022-10-15T23:37:11.183Z,100305.21
2022-10-15T23:39:42.766Z,100309.47
2022-10-15T23:42:14.596Z,100307.90
2022-10-15T23:44:46.636Z,100308.61
2022-10-15T23:47:18.461Z,100309.11
2022-10-15T23:49:50.207Z,100316.39
2022-10-15T23:52:22.158Z,100321.23
2022-10-15T23:54:53.737Z,100326.73
2022-10-15T23:57:26.200Z,100327.17
2022-10-15T23:59:58.938Z,100328.77
